createdAt,value
2023-11-09T00:01:10.606Z,97832.94
2023-11-09T00:03:37.921Z,97828.81
2023-11-09T00:06:04.965Z,97823.75
2023-11-09T00:08:31.810Z,97824.84
2023-11-09T00:10:58.492Z,97822.59
2023-11-09T00:13:25.134Z,97814.91
2023-11-09T00:15:51.893Z,97811.72
2023-11-09T00:18:22.985Z,97796.16
2023-11-09T00:20:50.720Z,97803.03
2023-11-09T00:23:17.284Z,97805.28
2023-11-09T00:25:43.811Z,97806.31
2023-11-09T00:28:10.353Z,97800.09
2023-11-09T00:30:37.024Z,97797.69
2023-11-09T00:33:03.615Z,97790.66
2023-11-09T00:35:31.277Z,97795.53
2023-11-09T00:37:59.075Z,97784.41
2023-11-09T00:40:25.748Z,97780.78
2023-11-09T00:42:52.456Z,97779.75
2023-11-09T00:45:19.450Z,97779.13
2023-11-09T00:47:47.156Z,97776.63
2023-11-09T00:50:13.885Z,97775.03
2023-11-09T00:52:43.870Z,97770.66
2023-11-09T00:55:10.598Z,97764.53
2023-11-09T00:57:37.761Z,97761.91
2023-11-09T01:00:05.816Z,97756.66
2023-11-09T01:02:38.309Z,97763.09
2023-11-09T01:05:08.745Z,97747.16
2023-11-09T01:07:35.499Z,97744.34
2023-11-09T01:10:02.138Z,97740.34
2023-11-09T01:12:28.839Z,97735.72
2023-11-09T01:14:55.533Z,97736.31
2023-11-09T01:17:22.217Z,97730.00
2023-11-09T01:19:49.010Z,97718.25
2023-11-09T01:22:15.833Z,97718.91
2023-11-09T01:24:42.488Z,97717.50
2023-11-09T01:27:09.047Z,97719.69
2023-11-09T01:29:35.675Z,97717.66
2023-11-09T01:32:02.484Z,97706.16
2023-11-09T01:34:29.108Z,97719.94
2023-11-09T01:36:55.862Z,97724.22
2023-11-09T01:39:25.472Z,97724.22
2023-11-09T01:41:52.170Z,97723.63
2023-11-09T01:44:18.928Z,97714.69
2023-11-09T01:46:47.649Z,97716.72
2023-11-09T01:49:15.573Z,97716.97
2023-11-09T01:51:45.016Z,97707.44
2023-11-09T01:54:12.710Z,97701.56
2023-11-09T01:56:39.943Z,97706.41
2023-11-09T01:59:08.436Z,97707.19
2023-11-09T02:01:37.213Z,97699.09
2023-11-09T02:04:04.454Z,97699.09
2023-11-09T02:06:31.417Z,97693.41
2023-11-09T02:08:59.282Z,97692.19
2023-11-09T02:11:26.705Z,97689.78
2023-11-09T02:13:53.932Z,97676.81
2023-11-09T02:16:20.934Z,97681.47
2023-11-09T02:18:48.239Z,97667.72
2023-11-09T02:21:16.461Z,97669.13
2023-11-09T02:23:44.726Z,97665.09
2023-11-09T02:26:11.596Z,97662.66
2023-11-09T02:28:38.151Z,97654.19
2023-11-09T02:31:04.973Z,97663.53
2023-11-09T02:33:31.760Z,97656.66
2023-11-09T02:35:58.580Z,97650.38
2023-11-09T02:38:25.204Z,97646.28
2023-11-09T02:40:51.895Z,97642.84
2023-11-09T02:43:18.600Z,97638.41
2023-11-09T02:45:46.357Z,97637.41
2023-11-09T02:48:12.938Z,97646.13
2023-11-09T02:50:39.466Z,97641.84
2023-11-09T02:53:06.068Z,97644.69
2023-11-09T02:55:32.641Z,97636.03
2023-11-09T02:57:59.283Z,97640.25
2023-11-09T03:00:28.480Z,97630.72
2023-11-09T03:02:55.561Z,97620.84
2023-11-09T03:05:24.081Z,97621.25
2023-11-09T03:07:50.900Z,97627.13
2023-11-09T03:10:17.586Z,97628.09
2023-11-09T03:12:44.746Z,97624.69
2023-11-09T03:15:11.473Z,97621.03
2023-11-09T03:17:44.931Z,97620.44
2023-11-09T03:20:12.275Z,97621.22
2023-11-09T03:22:40.864Z,97599.00
2023-11-09T03:25:08.430Z,97604.06
2023-11-09T03:27:35.063Z,97606.91
2023-11-09T03:30:01.802Z,97598.22
2023-11-09T03:32:28.496Z,97592.38
2023-11-09T03:34:55.483Z,97593.56
2023-11-09T03:37:22.144Z,97590.53
2023-11-09T03:39:50.415Z,97585.47
2023-11-09T03:42:17.475Z,97587.69
2023-11-09T03:44:45.481Z,97585.47
2023-11-09T03:47:12.118Z,97584.00
2023-11-09T03:49:42.707Z,97582.19
2023-11-09T03:52:10.066Z,97572.34
2023-11-09T03:54:36.678Z,97586.69
2023-11-09T03:57:03.419Z,97578.38
2023-11-09T03:59:29.963Z,97572.13
2023-11-09T04:01:56.608Z,97565.44
2023-11-09T04:04:24.371Z,97569.09
2023-11-09T04:06:51.215Z,97557.59
2023-11-09T04:09:20.037Z,97555.34
2023-11-09T04:11:47.774Z,97561.63
2023-11-09T04:14:14.805Z,97560.00
2023-11-09T04:16:41.434Z,97555.56
2023-11-09T04:19:10.938Z,97543.22
2023-11-09T04:21:37.868Z,97544.06
2023-11-09T04:24:06.457Z,97542.22
2023-11-09T04:26:33.790Z,97532.09
2023-11-09T04:29:02.298Z,97538.38
2023-11-09T04:31:32.159Z,97534.72
2023-11-09T04:34:10.318Z,97536.13
2023-11-09T04:36:41.623Z,97527.63
2023-11-09T04:39:09.489Z,97510.06
2023-11-09T04:41:36.415Z,97508.63
2023-11-09T04:44:03.134Z,97513.09
2023-11-09T04:46:30.436Z,97507.59
2023-11-09T04:48:58.756Z,97511.66
2023-11-09T04:51:31.585Z,97512.25
2023-11-09T04:54:08.134Z,97517.91
2023-11-09T04:56:54.267Z,97510.41
2023-11-09T04:59:27.536Z,97512.25
2023-11-09T05:02:17.147Z,97512.44
2023-11-09T05:05:02.778Z,97510.59
2023-11-09T05:07:29.406Z,97513.41
2023-11-09T05:09:56.695Z,97498.44
2023-11-09T05:12:23.893Z,97512.03
2023-11-09T05:14:50.855Z,97499.28
2023-11-09T05:17:17.471Z,97508.94
2023-11-09T05:19:45.609Z,97516.22
2023-11-09T05:22:12.288Z,97512.38
2023-11-09T05:24:43.312Z,97509.75
2023-11-09T05:27:11.541Z,97523.31
2023-11-09T05:29:39.660Z,97519.25
2023-11-09T05:32:09.945Z,97510.59
2023-11-09T05:34:37.617Z,97523.56
2023-11-09T05:37:05.189Z,97521.16
2023-11-09T05:39:32.105Z,97521.59
2023-11-09T05:42:00.216Z,97529.88
2023-11-09T05:44:27.608Z,97526.03
2023-11-09T05:46:55.921Z,97527.66
2023-11-09T05:49:24.186Z,97529.69
2023-11-09T05:51:51.872Z,97526.63
2023-11-09T05:54:19.332Z,97524.41
2023-11-09T05:56:46.720Z,97528.63
2023-11-09T05:59:14.420Z,97523.38
2023-11-09T06:01:43.458Z,97514.88
2023-11-09T06:04:10.203Z,97529.38
2023-11-09T06:06:37.029Z,97520.88
2023-11-09T06:09:07.458Z,97519.44
2023-11-09T06:11:35.356Z,97521.84
2023-11-09T06:14:04.728Z,97516.81
2023-11-09T06:16:32.036Z,97510.34
2023-11-09T06:18:59.305Z,97514.16
2023-11-09T06:21:26.040Z,97506.28
2023-11-09T06:23:53.445Z,97516.56
2023-11-09T06:26:23.654Z,97510.84
2023-11-09T06:28:53.531Z,97506.25
2023-11-09T06:31:23.052Z,97507.25
2023-11-09T06:33:53.462Z,97502.81
2023-11-09T06:36:21.043Z,97494.31
2023-11-09T06:38:49.026Z,97502.00
2023-11-09T06:41:16.313Z,97494.69
2023-11-09T06:43:43.728Z,97496.13
2023-11-09T06:46:10.687Z,97501.59
2023-11-09T06:48:37.383Z,97502.00
2023-11-09T06:51:05.353Z,97512.69
2023-11-09T06:53:31.948Z,97511.09
2023-11-09T06:55:58.585Z,97508.47
2023-11-09T06:58:26.170Z,97505.84
2023-11-09T07:00:53.279Z,97509.72
2023-11-09T07:03:20.988Z,97514.75
2023-11-09T07:05:47.888Z,97509.47
2023-11-09T07:08:14.546Z,97507.47
2023-11-09T07:10:41.880Z,97511.31
2023-11-09T07:13:08.517Z,97518.19
2023-11-09T07:15:35.149Z,97514.38
2023-11-09T07:18:05.400Z,97513.13
2023-11-09T07:20:34.343Z,97516.78
2023-11-09T07:23:07.670Z,97515.97
2023-11-09T07:25:37.449Z,97517.41
2023-11-09T07:28:05.448Z,97521.81
2023-11-09T07:30:37.564Z,97525.66
2023-11-09T07:33:04.901Z,97524.69
2023-11-09T07:35:32.109Z,97526.50
2023-11-09T07:37:59.401Z,97525.28
2023-11-09T07:40:28.338Z,97522.28
2023-11-09T07:42:55.722Z,97518.47
2023-11-09T07:45:23.124Z,97518.47
2023-11-09T07:47:49.720Z,97520.28
2023-11-09T07:50:17.467Z,97518.66
2023-11-09T07:52:44.614Z,97520.06
2023-11-09T07:55:12.044Z,97510.41
2023-11-09T07:57:39.087Z,97509.38
2023-11-09T08:00:11.822Z,97493.84
2023-11-09T08:02:39.914Z,97509.00
2023-11-09T08:05:12.871Z,97506.19
2023-11-09T08:07:41.247Z,97511.81
2023-11-09T08:10:08.593Z,97508.41
2023-11-09T08:12:37.187Z,97498.69
2023-11-09T08:15:11.577Z,97510.41
2023-11-09T08:17:42.758Z,97500.34
2023-11-09T08:20:14.725Z,97493.47
2023-11-09T08:22:46.497Z,97490.84
2023-11-09T08:25:18.845Z,97482.16
2023-11-09T08:27:45.650Z,97487.81
2023-11-09T08:30:12.898Z,97491.66
2023-11-09T08:32:41.422Z,97483.97
2023-11-09T08:35:14.046Z,97483.16
2023-11-09T08:37:42.372Z,97485.59
2023-11-09T08:40:20.056Z,97485.00
2023-11-09T08:42:47.585Z,97477.53
2023-11-09T08:45:14.573Z,97474.28
2023-11-09T08:47:41.377Z,97484.81
2023-11-09T08:50:10.306Z,97483.19
2023-11-09T08:52:43.225Z,97476.91
2023-11-09T08:55:10.710Z,97479.53
2023-11-09T08:57:38.359Z,97473.91
2023-11-09T09:00:13.013Z,97477.31
2023-11-09T09:02:50.412Z,97468.44
2023-11-09T09:05:19.466Z,97477.91
2023-11-09T09:07:51.222Z,97474.09
2023-11-09T09:10:27.875Z,97485.41
2023-11-09T09:12:58.338Z,97473.69
2023-11-09T09:15:43.878Z,97480.94
2023-11-09T09:18:11.292Z,97472.25
2023-11-09T09:21:12.165Z,97473.06
2023-11-09T09:23:39.512Z,97469.63
2023-11-09T09:26:15.135Z,97475.28
2023-11-09T09:28:49.614Z,97466.19
2023-11-09T09:31:17.593Z,97470.22
2023-11-09T09:34:09.801Z,97464.34
2023-11-09T09:36:41.257Z,97459.09
2023-11-09T09:39:08.992Z,97457.66
2023-11-09T09:41:51.110Z,97460.72
2023-11-09T09:44:18.805Z,97463.94
2023-11-09T09:46:49.603Z,97456.88
2023-11-09T09:49:18.212Z,97471.22
2023-11-09T09:51:45.329Z,97464.34
2023-11-09T09:54:12.480Z,97468.78
2023-11-09T09:56:39.771Z,97467.75
2023-11-09T09:59:13.321Z,97466.56
2023-11-09T10:01:49.613Z,97466.16
2023-11-09T10:04:16.968Z,97465.75
2023-11-09T10:06:43.776Z,97458.66
2023-11-09T10:09:12.407Z,97457.22
2023-11-09T10:11:39.715Z,97467.31
2023-11-09T10:14:07.615Z,97468.34
2023-11-09T10:16:35.257Z,97474.00
2023-11-09T10:19:06.513Z,97470.94
2023-11-09T10:21:33.173Z,97460.63
2023-11-09T10:24:00.395Z,97459.38
2023-11-09T10:26:41.832Z,97453.72
2023-11-09T10:29:15.277Z,97446.44
2023-11-09T10:31:42.557Z,97450.66
2023-11-09T10:34:12.678Z,97448.22
2023-11-09T10:36:45.615Z,97451.25
2023-11-09T10:39:23.229Z,97440.13
2023-11-09T10:41:56.658Z,97433.84
2023-11-09T10:44:30.915Z,97434.88
2023-11-09T10:47:04.029Z,97429.38
2023-11-09T10:49:37.262Z,97423.72
2023-11-09T10:52:06.298Z,97423.88
2023-11-09T10:54:34.106Z,97420.22
2023-11-09T10:57:01.721Z,97426.28
2023-11-09T10:59:30.508Z,97419.38
2023-11-09T11:02:05.832Z,97424.81
2023-11-09T11:04:35.985Z,97423.56
2023-11-09T11:07:07.228Z,97417.69
2023-11-09T11:09:39.006Z,97419.47
2023-11-09T11:12:08.967Z,97420.44
2023-11-09T11:14:41.669Z,97408.69
2023-11-09T11:17:29.753Z,97412.28
2023-11-09T11:20:41.889Z,97406.59
2023-11-09T11:23:27.345Z,97403.72
2023-11-09T11:26:09.108Z,97406.09
2023-11-09T11:28:40.075Z,97395.78
2023-11-09T11:31:09.245Z,97404.06
2023-11-09T11:33:39.409Z,97407.44
2023-11-09T11:36:06.695Z,97417.19
2023-11-09T11:38:34.876Z,97407.81
2023-11-09T11:41:23.582Z,97410.78
2023-11-09T11:43:54.353Z,97403.66
2023-11-09T11:46:25.350Z,97398.91
2023-11-09T11:48:54.502Z,97398.63
2023-11-09T11:51:22.035Z,97395.03
2023-11-09T11:53:59.231Z,97392.19
2023-11-09T11:56:35.244Z,97391.69
2023-11-09T11:59:07.440Z,97388.31
2023-11-09T12:01:35.471Z,97387.88
2023-11-09T12:04:06.446Z,97386.59
2023-11-09T12:06:39.832Z,97374.81
2023-11-09T12:09:11.748Z,97383.09
2023-11-09T12:11:47.691Z,97383.50
2023-11-09T12:14:16.440Z,97380.66
2023-11-09T12:16:43.343Z,97374.56
2023-11-09T12:19:13.560Z,97371.66
2023-11-09T12:21:41.186Z,97370.13
2023-11-09T12:24:14.348Z,97369.91
2023-11-09T12:26:43.283Z,97368.88
2023-11-09T12:29:11.173Z,97380.09
2023-11-09T12:31:37.829Z,97370.28
2023-11-09T12:34:15.505Z,97366.84
2023-11-09T12:36:44.804Z,97369.16
2023-11-09T12:39:31.193Z,97362.72
2023-11-09T12:41:59.068Z,97366.53
2023-11-09T12:44:35.829Z,97354.00
2023-11-09T12:47:13.088Z,97362.44
2023-11-09T12:49:41.931Z,97351.16
2023-11-09T12:52:10.323Z,97351.00
2023-11-09T12:54:39.079Z,97354.31
2023-11-09T12:57:08.216Z,97350.28
2023-11-09T13:00:31.565Z,97355.63
2023-11-09T13:03:15.196Z,97353.44
2023-11-09T13:05:52.360Z,97343.91
2023-11-09T13:11:23.590Z,97348.09
2023-11-09T13:14:05.603Z,97347.25
2023-11-09T13:17:05.269Z,97337.88
2023-11-09T13:19:35.109Z,97356.22
2023-11-09T13:22:01.688Z,97350.72
2023-11-09T13:24:32.317Z,97343.41
2023-11-09T13:27:00.150Z,97371.19
2023-11-09T13:30:04.974Z,97367.28
2023-11-09T13:32:33.819Z,97375.47
2023-11-09T13:35:22.365Z,97371.84
2023-11-09T13:38:10.123Z,97367.59
2023-11-09T13:42:12.834Z,97370.09
2023-11-09T13:45:03.509Z,97381.44
2023-11-09T13:52:14.086Z,97376.97
2023-11-09T13:55:24.604Z,97376.63
2023-11-09T13:58:01.604Z,97387.16
2023-11-09T14:00:37.954Z,97384.59
2023-11-09T14:03:06.599Z,97381.94
2023-11-09T14:05:33.289Z,97395.97
2023-11-09T14:08:04.047Z,97394.75
2023-11-09T14:10:30.614Z,97397.38
2023-11-09T14:13:10.517Z,97395.59
2023-11-09T14:15:50.262Z,97408.78
2023-11-09T14:18:26.799Z,97410.22
2023-11-09T14:20:54.441Z,97404.94
2023-11-09T14:23:22.751Z,97410.00
2023-11-09T14:25:49.427Z,97405.53
2023-11-09T14:28:16.056Z,97400.47
2023-11-09T14:30:48.766Z,97393.81
2023-11-09T14:33:20.092Z,97398.91
2023-11-09T14:35:47.370Z,97397.06
2023-11-09T14:38:14.678Z,97393.41
2023-11-09T14:40:45.676Z,97384.94
2023-11-09T14:43:14.818Z,97376.88
2023-11-09T14:45:47.082Z,97381.53
2023-11-09T14:48:14.688Z,97377.13
2023-11-09T14:50:43.190Z,97388.63
2023-11-09T14:53:12.207Z,97394.09
2023-11-09T14:55:43.155Z,97384.22
2023-11-09T14:58:15.097Z,97392.94
2023-11-09T15:00:46.711Z,97392.94
2023-11-09T15:03:27.074Z,97396.44
2023-11-09T15:05:58.912Z,97400.28
2023-11-09T15:08:28.732Z,97397.47
2023-11-09T15:10:58.727Z,97387.94
2023-11-09T15:13:27.393Z,97390.63
2023-11-09T15:15:54.667Z,97385.19
2023-11-09T15:18:22.695Z,97385.75
2023-11-09T15:20:52.595Z,97381.34
2023-11-09T15:23:19.219Z,97380.16
2023-11-09T15:25:48.933Z,97377.31
2023-11-09T15:28:15.776Z,97372.44
2023-11-09T15:30:42.978Z,97373.06
2023-11-09T15:33:15.487Z,97371.66
2023-11-09T15:35:47.082Z,97364.00
2023-11-09T15:38:14.590Z,97357.31
2023-11-09T15:41:15.075Z,97367.06
2023-11-09T15:43:38.131Z,97358.38
2023-11-09T15:46:12.214Z,97354.34
2023-11-09T15:48:46.354Z,97353.94
2023-11-09T15:51:17.685Z,97343.25
2023-11-09T15:53:44.655Z,97338.81
2023-11-09T15:56:14.319Z,97353.56
2023-11-09T15:58:41.691Z,97346.28
2023-11-09T16:01:10.354Z,97361.06
2023-11-09T16:03:37.083Z,97350.38
2023-11-09T16:06:03.725Z,97355.53
2023-11-09T16:08:31.121Z,97344.09
2023-11-09T16:10:58.801Z,97348.97
2023-11-09T16:13:25.967Z,97349.34
2023-11-09T16:15:53.403Z,97349.38
2023-11-09T16:18:21.362Z,97337.84
2023-11-09T16:20:47.925Z,97337.28
2023-11-09T16:23:17.339Z,97334.25
2023-11-09T16:25:47.956Z,97325.38
2023-11-09T16:28:21.247Z,97327.81
2023-11-09T16:30:48.339Z,97326.19
2023-11-09T16:33:15.298Z,97314.50
2023-11-09T16:35:42.409Z,97313.91
2023-11-09T16:38:10.324Z,97322.97
2023-11-09T16:40:39.825Z,97324.19
2023-11-09T16:43:08.834Z,97320.34
2023-11-09T16:45:35.827Z,97306.63
2023-11-09T16:48:02.653Z,97308.84
2023-11-09T16:50:29.390Z,97307.84
2023-11-09T16:52:55.930Z,97309.03
2023-11-09T16:55:22.727Z,97307.44
2023-11-09T16:57:50.226Z,97305.59
2023-11-09T17:00:19.358Z,97304.59
2023-11-09T17:02:47.698Z,97300.16
2023-11-09T17:05:16.763Z,97297.09
2023-11-09T17:07:46.030Z,97297.06
2023-11-09T17:10:14.242Z,97298.72
2023-11-09T17:12:41.721Z,97300.16
2023-11-09T17:15:11.315Z,97310.22
2023-11-09T17:17:40.327Z,97319.34
2023-11-09T17:20:08.320Z,97331.03
2023-11-09T17:22:35.105Z,97321.56
2023-11-09T17:25:01.933Z,97321.97
2023-11-09T17:27:28.470Z,97324.41
2023-11-09T17:29:56.072Z,97334.69
2023-11-09T17:32:23.034Z,97337.50
2023-11-09T17:34:49.811Z,97324.56
2023-11-09T17:37:16.821Z,97318.31
2023-11-09T17:39:43.369Z,97318.09
2023-11-09T17:42:11.584Z,97317.31
2023-11-09T17:44:38.223Z,97309.63
2023-11-09T17:47:05.042Z,97297.72
2023-11-09T17:49:31.830Z,97298.72
2023-11-09T17:51:58.453Z,97296.09
2023-11-09T17:54:25.402Z,97298.94
2023-11-09T17:56:52.312Z,97286.41
2023-11-09T17:59:20.072Z,97284.00
2023-11-09T18:01:47.292Z,97282.97
2023-11-09T18:04:14.236Z,97285.19
2023-11-09T18:06:40.834Z,97282.75
2023-11-09T18:09:08.464Z,97284.16
2023-11-09T18:11:41.593Z,97282.31
2023-11-09T18:14:16.144Z,97284.94
2023-11-09T18:16:43.943Z,97282.91
2023-11-09T18:19:14.898Z,97279.88
2023-11-09T18:21:42.398Z,97272.41
2023-11-09T18:24:10.120Z,97271.97
2023-11-09T18:26:36.934Z,97273.78
2023-11-09T18:29:03.877Z,97275.78
2023-11-09T18:31:30.779Z,97261.22
2023-11-09T18:33:57.531Z,97253.53
2023-11-09T18:36:24.168Z,97247.88
2023-11-09T18:38:50.717Z,97237.41
2023-11-09T18:41:18.674Z,97239.44
2023-11-09T18:43:45.639Z,97238.19
2023-11-09T18:46:12.398Z,97237.81
2023-11-09T18:48:38.969Z,97237.84
2023-11-09T18:51:08.872Z,97249.50
2023-11-09T18:53:36.620Z,97239.41
2023-11-09T18:56:03.788Z,97232.31
2023-11-09T18:58:30.644Z,97219.38
2023-11-09T19:00:58.432Z,97222.81
2023-11-09T19:05:55.106Z,97207.44
2023-11-09T19:08:22.010Z,97197.97
2023-11-09T19:10:51.887Z,97202.59
2023-11-09T19:13:20.093Z,97207.44
2023-11-09T19:15:47.952Z,97210.06
2023-11-09T19:18:14.591Z,97208.19
2023-11-09T19:23:11.811Z,97201.94
2023-11-09T19:25:38.679Z,97207.63
2023-11-09T19:28:06.091Z,97209.03
2023-11-09T19:30:32.746Z,97203.56
2023-11-09T19:32:59.507Z,97200.28
2023-11-09T19:35:27.836Z,97179.25
2023-11-09T19:37:56.376Z,97179.25
2023-11-09T19:40:22.886Z,97181.28
2023-11-09T19:42:49.884Z,97166.50
2023-11-09T19:45:18.163Z,97167.31
2023-11-09T19:47:45.069Z,97163.84
2023-11-09T19:50:12.615Z,97162.25
2023-11-09T19:52:39.353Z,97165.69
2023-11-09T19:55:07.271Z,97147.44
2023-11-09T19:57:33.899Z,97149.66
2023-11-09T20:00:00.582Z,97151.25
2023-11-09T20:02:27.300Z,97151.41
2023-11-09T20:04:53.915Z,97144.94
2023-11-09T20:07:20.746Z,97134.56
2023-11-09T20:09:47.364Z,97146.53
2023-11-09T20:12:16.290Z,97149.63
2023-11-09T20:14:43.008Z,97162.97
2023-11-09T20:17:09.621Z,97160.50
2023-11-09T20:19:36.156Z,97159.63
2023-11-09T20:22:04.947Z,97160.56
2023-11-09T20:24:32.521Z,97150.28
2023-11-09T20:26:59.354Z,97137.84
2023-11-09T20:29:29.811Z,97148.97
2023-11-09T20:31:58.469Z,97153.16
2023-11-09T20:34:26.875Z,97153.34
2023-11-09T20:36:53.555Z,97144.88
2023-11-09T20:39:23.410Z,97147.88
2023-11-09T20:41:50.065Z,97139.53
2023-11-09T20:44:20.242Z,97141.38
2023-11-09T20:46:47.792Z,97142.44
2023-11-09T20:49:14.684Z,97146.25
2023-11-09T20:51:41.998Z,97151.91
2023-11-09T20:54:08.868Z,97160.72
2023-11-09T20:56:36.772Z,97140.03
2023-11-09T20:59:03.465Z,97143.91
2023-11-09T21:01:30.032Z,97144.94
2023-11-09T21:03:57.076Z,97141.28
2023-11-09T21:06:25.455Z,97135.94
2023-11-09T21:08:52.314Z,97130.28
2023-11-09T21:11:19.276Z,97128.88
2023-11-09T21:13:46.400Z,97121.31
2023-11-09T21:16:13.025Z,97123.34
2023-11-09T21:18:40.184Z,97113.63
2023-11-09T21:21:06.780Z,97118.75
2023-11-09T21:23:33.500Z,97117.88
2023-11-09T21:26:01.937Z,97112.78
2023-11-09T21:28:28.527Z,97118.69
2023-11-09T21:30:55.047Z,97112.25
2023-11-09T21:33:22.135Z,97122.13
2023-11-09T21:35:49.353Z,97131.03
2023-11-09T21:38:16.058Z,97124.91
2023-11-09T21:40:42.828Z,97115.94
2023-11-09T21:43:12.073Z,97112.69
2023-11-09T21:45:39.343Z,97112.91
2023-11-09T21:48:05.982Z,97117.38
2023-11-09T21:50:33.957Z,97104.44
2023-11-09T21:53:00.494Z,97111.53
2023-11-09T21:55:28.970Z,97109.78
2023-11-09T21:57:55.593Z,97115.59
2023-11-09T22:00:22.581Z,97110.56
2023-11-09T22:02:49.998Z,97100.47
2023-11-09T22:05:17.038Z,97104.78
2023-11-09T22:07:43.658Z,97100.00
2023-11-09T22:10:12.135Z,97096.41
2023-11-09T22:12:39.900Z,97098.91
2023-11-09T22:15:09.248Z,97097.91
2023-11-09T22:17:35.850Z,97095.94
2023-11-09T22:20:02.495Z,97093.75
2023-11-09T22:22:29.214Z,97099.22
2023-11-09T22:24:55.852Z,97096.59
2023-11-09T22:27:23.992Z,97097.38
2023-11-09T22:29:53.711Z,97087.09
2023-11-09T22:32:20.246Z,97094.59
2023-11-09T22:34:46.792Z,97088.31
2023-11-09T22:37:13.345Z,97092.34
2023-11-09T22:39:39.948Z,97075.69
2023-11-09T22:42:07.802Z,97068.25
2023-11-09T22:44:36.106Z,97041.47
2023-11-09T22:47:06.915Z,97059.38
2023-11-09T22:49:33.437Z,97053.81
2023-11-09T22:52:00.060Z,97056.84
2023-11-09T22:54:26.805Z,97066.16
2023-11-09T22:56:53.414Z,97053.44
2023-11-09T22:59:20.390Z,97052.44
2023-11-09T23:01:46.965Z,97051.06
2023-11-09T23:04:14.579Z,97048.22
2023-11-09T23:06:41.282Z,97056.91
2023-11-09T23:09:08.526Z,97048.97
2023-11-09T23:11:35.310Z,97046.34
2023-11-09T23:14:02.852Z,97053.59
2023-11-09T23:16:29.497Z,97048.97
2023-11-09T23:18:57.319Z,97049.41
2023-11-09T23:21:24.440Z,97046.47
2023-11-09T23:23:51.159Z,97040.00
2023-11-09T23:26:17.792Z,97034.38
2023-11-09T23:28:48.424Z,97025.88
2023-11-09T23:31:15.015Z,97026.13
2023-11-09T23:33:42.721Z,97026.34
2023-11-09T23:36:11.846Z,97026.78
2023-11-09T23:38:42.552Z,97023.78
2023-11-09T23:41:09.945Z,97014.03
2023-11-09T23:43:37.896Z,97001.72
2023-11-09T23:46:06.351Z,97011.09
2023-11-09T23:48:36.347Z,97029.06
2023-11-09T23:51:03.065Z,97030.28
2023-11-09T23:53:31.867Z,97042.78
2023-11-09T23:55:58.554Z,97040.16
2023-11-09T23:58:26.249Z,97035.53
